sensor_id;sensor_type;location;lat;lon;timestamp;temperature;humidity
3790;DHT22;1910;49.042;9.028;2022-11-20T00:04:10;4.10;99.90
3790;DHT22;1910;49.042;9.028;2022-11-20T00:06:37;4.10;99.90
3790;DHT22;1910;49.042;9.028;2022-11-20T00:14:00;4.10;99.90
3790;DHT22;1910;49.042;9.028;2022-11-20T00:16:28;4.20;99.90
3790;DHT22;1910;49.042;9.028;2022-11-20T00:18:54;4.30;99.90
3790;DHT22;1910;49.042;9.028;2022-11-20T00:21:22;4.40;99.90
3790;DHT22;1910;49.042;9.028;2022-11-20T00:23:49;4.50;99.90
3790;DHT22;1910;49.042;9.028;2022-11-20T00:26:16;4.60;99.90
3790;DHT22;1910;49.042;9.028;2022-11-20T00:28:43;4.60;99.90
3790;DHT22;1910;49.042;9.028;2022-11-20T00:31:13;4.70;99.90
3790;DHT22;1910;49.042;9.028;2022-11-20T00:33:40;4.50;99.90
3790;DHT22;1910;49.042;9.028;2022-11-20T00:36:08;4.50;99.90
3790;DHT22;1910;49.042;9.028;2022-11-20T00:38:34;4.40;99.90
3790;DHT22;1910;49.042;9.028;2022-11-20T00:41:03;4.20;99.90
3790;DHT22;1910;49.042;9.028;2022-11-20T00:43:29;4.20;99.90
3790;DHT22;1910;49.042;9.028;2022-11-20T00:46:06;4.10;99.90
3790;DHT22;1910;49.042;9.028;2022-11-20T00:48:32;4.10;99.90
3790;DHT22;1910;49.042;9.028;2022-11-20T00:53:24;4.10;99.90
3790;DHT22;1910;49.042;9.028;2022-11-20T00:56:03;4.10;99.90
3790;DHT22;1910;49.042;9.028;2022-11-20T00:58:34;4.10;99.90
3790;DHT22;1910;49.042;9.028;2022-11-20T01:01:12;4.10;99.90
3790;DHT22;1910;49.042;9.028;2022-11-20T01:03:43;4.10;99.90
3790;DHT22;1910;49.042;9.028;2022-11-20T01:06:20;4.20;99.90
3790;DHT22;1910;49.042;9.028;2022-11-20T01:08:47;4.20;99.90
3790;DHT22;1910;49.042;9.028;2022-11-20T01:11:19;4.30;99.90
3790;DHT22;1910;49.042;9.028;2022-11-20T01:13:46;4.40;99.90
3790;DHT22;1910;49.042;9.028;2022-11-20T01:16:18;4.60;99.90
3790;DHT22;1910;49.042;9.028;2022-11-20T01:18:46;4.40;99.90
3790;DHT22;1910;49.042;9.028;2022-11-20T01:23:42;4.60;99.90
3790;DHT22;1910;49.042;9.028;2022-11-20T01:26:14;4.50;99.90
3790;DHT22;1910;49.042;9.028;2022-11-20T01:31:18;4.70;99.90
3790;DHT22;1910;49.042;9.028;2022-11-20T01:36:11;4.70;99.90
3790;DHT22;1910;49.042;9.028;2022-11-20T01:38:38;4.70;99.90
3790;DHT22;1910;49.042;9.028;2022-11-20T01:43:30;4.60;99.90
3790;DHT22;1910;49.042;9.028;2022-11-20T01:46:18;4.40;99.90
3790;DHT22;1910;49.042;9.028;2022-11-20T01:48:58;4.80;99.90
3790;DHT22;1910;49.042;9.028;2022-11-20T01:51:45;5.10;99.90
3790;DHT22;1910;49.042;9.028;2022-11-20T01:54:25;5.80;99.90
3790;DHT22;1910;49.042;9.028;2022-11-20T01:56:55;5.10;99.90
3790;DHT22;1910;49.042;9.028;2022-11-20T01:59:23;5.20;99.90
3790;DHT22;1910;49.042;9.028;2022-11-20T02:04:16;5.40;99.90
3790;DHT22;1910;49.042;9.028;2022-11-20T02:06:51;5.50;99.90
3790;DHT22;1910;49.042;9.028;2022-11-20T02:16:40;5.70;99.90
3790;DHT22;1910;49.042;9.028;2022-11-20T02:19:24;5.80;99.90
3790;DHT22;1910;49.042;9.028;2022-11-20T02:27:07;5.90;99.90
3790;DHT22;1910;49.042;9.028;2022-11-20T02:29:38;5.90;99.90
3790;DHT22;1910;49.042;9.028;2022-11-20T02:32:05;6.00;99.90
3790;DHT22;1910;49.042;9.028;2022-11-20T02:36:57;5.90;99.90
3790;DHT22;1910;49.042;9.028;2022-11-20T02:39:25;6.00;99.90
3790;DHT22;1910;49.042;9.028;2022-11-20T02:41:53;6.00;99.90
3790;DHT22;1910;49.042;9.028;2022-11-20T02:44:19;6.20;99.90
3790;DHT22;1910;49.042;9.028;2022-11-20T03:16:16;6.20;99.90
3790;DHT22;1910;49.042;9.028;2022-11-20T03:18:42;6.30;99.90
3790;DHT22;1910;49.042;9.028;2022-11-20T03:21:09;6.30;99.90
3790;DHT22;1910;49.042;9.028;2022-11-20T03:26:23;6.30;99.90
3790;DHT22;1910;49.042;9.028;2022-11-20T03:28:54;6.30;99.90
3790;DHT22;1910;49.042;9.028;2022-11-20T03:31:22;6.40;99.90
3790;DHT22;1910;49.042;9.028;2022-11-20T03:33:48;6.30;99.90
3790;DHT22;1910;49.042;9.028;2022-11-20T03:36:16;6.30;99.90
3790;DHT22;1910;49.042;9.028;2022-11-20T03:41:10;6.10;99.90
3790;DHT22;1910;49.042;9.028;2022-11-20T03:51:16;6.10;99.90
3790;DHT22;1910;49.042;9.028;2022-11-20T03:53:43;6.00;99.90
3790;DHT22;1910;49.042;9.028;2022-11-20T03:56:09;6.00;99.90
3790;DHT22;1910;49.042;9.028;2022-11-20T03:58:36;6.20;99.90
3790;DHT22;1910;49.042;9.028;2022-11-20T04:01:08;6.20;99.90
3790;DHT22;1910;49.042;9.028;2022-11-20T04:03:35;6.10;99.90
3790;DHT22;1910;49.042;9.028;2022-11-20T04:06:06;6.30;99.90
3790;DHT22;1910;49.042;9.028;2022-11-20T04:11:31;6.20;99.90
3790;DHT22;1910;49.042;9.028;2022-11-20T04:13:59;6.10;99.90
3790;DHT22;1910;49.042;9.028;2022-11-20T04:16:26;6.10;99.90
3790;DHT22;1910;49.042;9.028;2022-11-20T04:18:56;6.10;99.90
3790;DHT22;1910;49.042;9.028;2022-11-20T04:21:22;6.20;99.90
3790;DHT22;1910;49.042;9.028;2022-11-20T04:23:49;6.20;99.90
3790;DHT22;1910;49.042;9.028;2022-11-20T04:36:07;6.30;99.90
3790;DHT22;1910;49.042;9.028;2022-11-20T04:38:35;6.30;99.90
3790;DHT22;1910;49.042;9.028;2022-11-20T04:41:03;6.30;99.90
3790;DHT22;1910;49.042;9.028;2022-11-20T04:45:56;6.20;99.90
3790;DHT22;1910;49.042;9.028;2022-11-20T04:48:25;6.10;99.90
3790;DHT22;1910;49.042;9.028;2022-11-20T04:50:53;6.00;99.90
3790;DHT22;1910;49.042;9.028;2022-11-20T04:53:19;6.20;99.90
3790;DHT22;1910;49.042;9.028;2022-11-20T04:55:46;6.10;99.90
3790;DHT22;1910;49.042;9.028;2022-11-20T05:05:30;6.40;99.90
3790;DHT22;1910;49.042;9.028;2022-11-20T05:07:57;6.20;99.90
3790;DHT22;1910;49.042;9.028;2022-11-20T05:10:23;6.30;99.90
3790;DHT22;1910;49.042;9.028;2022-11-20T05:25:00;6.30;99.90
3790;DHT22;1910;49.042;9.028;2022-11-20T05:52:03;6.50;99.90
3790;DHT22;1910;49.042;9.028;2022-11-20T06:09:05;6.40;99.90
3790;DHT22;1910;49.042;9.028;2022-11-20T06:21:19;6.50;99.90
3790;DHT22;1910;49.042;9.028;2022-11-20T06:26:14;6.50;99.90
3790;DHT22;1910;49.042;9.028;2022-11-20T06:31:06;6.60;99.90
3790;DHT22;1910;49.042;9.028;2022-11-20T06:33:33;5.90;99.90
3790;DHT22;1910;49.042;9.028;2022-11-20T06:35:59;6.50;99.90
3790;DHT22;1910;49.042;9.028;2022-11-20T06:38:26;5.90;99.90
3790;DHT22;1910;49.042;9.028;2022-11-20T06:50:38;6.70;99.90
3790;DHT22;1910;49.042;9.028;2022-11-20T06:53:04;6.40;99.90
3790;DHT22;1910;49.042;9.028;2022-11-20T07:28:09;6.10;99.90
3790;DHT22;1910;49.042;9.028;2022-11-20T07:33:10;6.30;99.90
3790;DHT22;1910;49.042;9.028;2022-11-20T07:40:29;6.20;99.90
3790;DHT22;1910;49.042;9.028;2022-11-20T07:42:55;6.10;99.90
3790;DHT22;1910;49.042;9.028;2022-11-20T07:45:23;6.20;99.90
3790;DHT22;1910;49.042;9.028;2022-11-20T07:47:49;6.40;99.90
3790;DHT22;1910;49.042;9.028;2022-11-20T07:55:07;6.20;99.90
3790;DHT22;1910;49.042;9.028;2022-11-20T08:12:17;6.30;99.90
3790;DHT22;1910;49.042;9.028;2022-11-20T08:27:12;6.20;99.90
3790;DHT22;1910;49.042;9.028;2022-11-20T08:46:41;6.40;99.90
3790;DHT22;1910;49.042;9.028;2022-11-20T08:49:11;6.40;99.90
3790;DHT22;1910;49.042;9.028;2022-11-20T08:51:38;6.40;99.90
3790;DHT22;1910;49.042;9.028;2022-11-20T08:54:04;6.50;99.90
3790;DHT22;1910;49.042;9.028;2022-11-20T09:13:35;6.40;99.90
3790;DHT22;1910;49.042;9.028;2022-11-20T09:16:06;6.50;99.90
3790;DHT22;1910;49.042;9.028;2022-11-20T09:18:33;6.60;99.90
3790;DHT22;1910;49.042;9.028;2022-11-20T09:21:03;6.90;99.90
3790;DHT22;1910;49.042;9.028;2022-11-20T09:23:32;7.10;99.90
3790;DHT22;1910;49.042;9.028;2022-11-20T09:40:40;7.10;99.90
3790;DHT22;1910;49.042;9.028;2022-11-20T09:51:53;7.10;99.90
3790;DHT22;1910;49.042;9.028;2022-11-20T09:54:32;9.50;99.90
3790;DHT22;1910;49.042;9.028;2022-11-20T09:57:02;7.10;99.90
3790;DHT22;1910;49.042;9.028;2022-11-20T10:02:00;7.00;99.90
3790;DHT22;1910;49.042;9.028;2022-11-20T10:04:29;7.00;99.90
3790;DHT22;1910;49.042;9.028;2022-11-20T10:07:04;7.10;99.90
3790;DHT22;1910;49.042;9.028;2022-11-20T10:09:37;7.20;99.90
3790;DHT22;1910;49.042;9.028;2022-11-20T10:17:58;7.40;99.90
3790;DHT22;1910;49.042;9.028;2022-11-20T10:20:47;7.40;99.90
3790;DHT22;1910;49.042;9.028;2022-11-20T10:23:31;7.70;99.90
3790;DHT22;1910;49.042;9.028;2022-11-20T10:26:02;7.20;99.90
3790;DHT22;1910;49.042;9.028;2022-11-20T10:28:46;7.40;99.90
3790;DHT22;1910;49.042;9.028;2022-11-20T10:31:35;7.50;99.90
3790;DHT22;1910;49.042;9.028;2022-11-20T10:34:17;7.80;99.90
3790;DHT22;1910;49.042;9.028;2022-11-20T10:36:54;7.80;99.90
3790;DHT22;1910;49.042;9.028;2022-11-20T10:39:37;7.80;99.90
3790;DHT22;1910;49.042;9.028;2022-11-20T10:42:11;7.60;99.90
3790;DHT22;1910;49.042;9.028;2022-11-20T10:44:46;7.80;99.90
3790;DHT22;1910;49.042;9.028;2022-11-20T10:47:30;7.50;99.90
3790;DHT22;1910;49.042;9.028;2022-11-20T10:50:02;7.40;99.90
3790;DHT22;1910;49.042;9.028;2022-11-20T10:55:06;7.30;99.90
3790;DHT22;1910;49.042;9.028;2022-11-20T10:57:54;7.20;99.90
3790;DHT22;1910;49.042;9.028;2022-11-20T11:00:23;7.30;99.90
3790;DHT22;1910;49.042;9.028;2022-11-20T11:02:52;7.30;99.90
3790;DHT22;1910;49.042;9.028;2022-11-20T11:07:45;7.40;99.90
3790;DHT22;1910;49.042;9.028;2022-11-20T11:10:18;7.30;99.90
3790;DHT22;1910;49.042;9.028;2022-11-20T11:12:46;7.10;99.90
3790;DHT22;1910;49.042;9.028;2022-11-20T11:20:22;7.30;99.90
3790;DHT22;1910;49.042;9.028;2022-11-20T11:22:50;7.50;99.90
3790;DHT22;1910;49.042;9.028;2022-11-20T11:25:23;7.50;99.90
3790;DHT22;1910;49.042;9.028;2022-11-20T11:27:50;7.60;99.90
3790;DHT22;1910;49.042;9.028;2022-11-20T11:30:18;7.80;99.90
3790;DHT22;1910;49.042;9.028;2022-11-20T11:35:20;7.60;99.90
3790;DHT22;1910;49.042;9.028;2022-11-20T11:40:15;7.60;99.90
3790;DHT22;1910;49.042;9.028;2022-11-20T11:42:46;7.70;99.90
3790;DHT22;1910;49.042;9.028;2022-11-20T11:45:16;7.80;99.90
3790;DHT22;1910;49.042;9.028;2022-11-20T11:47:46;7.60;99.90
3790;DHT22;1910;49.042;9.028;2022-11-20T11:52:51;7.80;99.90
3790;DHT22;1910;49.042;9.028;2022-11-20T11:55:46;7.80;99.90
3790;DHT22;1910;49.042;9.028;2022-11-20T11:58:52;7.90;99.90
3790;DHT22;1910;49.042;9.028;2022-11-20T12:01:32;8.10;99.90
3790;DHT22;1910;49.042;9.028;2022-11-20T12:04:24;8.10;99.90
3790;DHT22;1910;49.042;9.028;2022-11-20T12:07:04;8.00;99.90
3790;DHT22;1910;49.042;9.028;2022-11-20T12:09:38;7.90;99.90
3790;DHT22;1910;49.042;9.028;2022-11-20T12:12:12;8.00;99.90
3790;DHT22;1910;49.042;9.028;2022-11-20T12:14:44;7.90;99.90
3790;DHT22;1910;49.042;9.028;2022-11-20T12:17:12;8.00;99.90
3790;DHT22;1910;49.042;9.028;2022-11-20T12:19:40;8.20;99.90
3790;DHT22;1910;49.042;9.028;2022-11-20T12:24:55;8.10;99.90
3790;DHT22;1910;49.042;9.028;2022-11-20T12:27:44;7.90;99.90
3790;DHT22;1910;49.042;9.028;2022-11-20T12:30:18;7.60;99.90
3790;DHT22;1910;49.042;9.028;2022-11-20T12:33:17;7.60;99.90
3790;DHT22;1910;49.042;9.028;2022-11-20T12:36:13;7.40;99.90
3790;DHT22;1910;49.042;9.028;2022-11-20T12:39:05;7.30;99.90
3790;DHT22;1910;49.042;9.028;2022-11-20T12:45:12;7.50;99.90
3790;DHT22;1910;49.042;9.028;2022-11-20T12:53:05;7.50;99.90
3790;DHT22;1910;49.042;9.028;2022-11-20T12:59:39;7.60;99.90
3790;DHT22;1910;49.042;9.028;2022-11-20T13:01:44;7.70;99.90
3790;DHT22;1910;49.042;9.028;2022-11-20T13:07:06;8.00;99.90
3790;DHT22;1910;49.042;9.028;2022-11-20T13:09:34;8.20;99.90
3790;DHT22;1910;49.042;9.028;2022-11-20T13:17:55;8.40;99.90
3790;DHT22;1910;49.042;9.028;2022-11-20T13:20:23;8.50;99.90
3790;DHT22;1910;49.042;9.028;2022-11-20T13:22:54;8.50;99.90
3790;DHT22;1910;49.042;9.028;2022-11-20T13:25:30;8.40;99.90
3790;DHT22;1910;49.042;9.028;2022-11-20T13:27:58;8.10;99.90
3790;DHT22;1910;49.042;9.028;2022-11-20T13:30:29;7.90;99.90
3790;DHT22;1910;49.042;9.028;2022-11-20T13:38:12;7.70;99.90
3790;DHT22;1910;49.042;9.028;2022-11-20T13:40:53;7.60;99.90
3790;DHT22;1910;49.042;9.028;2022-11-20T13:43:38;7.40;99.90
3790;DHT22;1910;49.042;9.028;2022-11-20T13:46:06;7.50;99.90
3790;DHT22;1910;49.042;9.028;2022-11-20T13:48:38;6.20;99.90
3790;DHT22;1910;49.042;9.028;2022-11-20T13:51:43;7.50;99.90
3790;DHT22;1910;49.042;9.028;2022-11-20T13:54:36;7.70;99.90
3790;DHT22;1910;49.042;9.028;2022-11-20T13:57:22;7.70;99.90
3790;DHT22;1910;49.042;9.028;2022-11-20T14:00:15;8.00;99.90
3790;DHT22;1910;49.042;9.028;2022-11-20T14:02:41;8.00;99.90
3790;DHT22;1910;49.042;9.028;2022-11-20T14:05:19;8.00;99.90
3790;DHT22;1910;49.042;9.028;2022-11-20T14:07:47;8.10;99.90
3790;DHT22;1910;49.042;9.028;2022-11-20T14:10:23;7.80;99.90
3790;DHT22;1910;49.042;9.028;2022-11-20T14:15:33;7.90;99.90
3790;DHT22;1910;49.042;9.028;2022-11-20T14:18:15;7.80;99.90
3790;DHT22;1910;49.042;9.028;2022-11-20T14:20:42;7.90;99.90
3790;DHT22;1910;49.042;9.028;2022-11-20T14:23:10;7.90;99.90
3790;DHT22;1910;49.042;9.028;2022-11-20T14:25:36;7.90;99.90
3790;DHT22;1910;49.042;9.028;2022-11-20T14:28:03;7.90;99.90
3790;DHT22;1910;49.042;9.028;2022-11-20T14:30:42;7.80;99.90
3790;DHT22;1910;49.042;9.028;2022-11-20T14:33:14;7.80;99.90
3790;DHT22;1910;49.042;9.028;2022-11-20T14:35:48;7.80;99.90
3790;DHT22;1910;49.042;9.028;2022-11-20T14:38:17;7.70;99.90
3790;DHT22;1910;49.042;9.028;2022-11-20T14:40:43;7.80;99.90
3790;DHT22;1910;49.042;9.028;2022-11-20T14:43:19;7.70;99.90
3790;DHT22;1910;49.042;9.028;2022-11-20T14:45:58;7.70;99.90
3790;DHT22;1910;49.042;9.028;2022-11-20T14:48:33;7.60;99.90
3790;DHT22;1910;49.042;9.028;2022-11-20T14:55:59;7.30;99.90
3790;DHT22;1910;49.042;9.028;2022-11-20T14:58:28;7.50;99.90
3790;DHT22;1910;49.042;9.028;2022-11-20T15:01:00;7.70;99.90
3790;DHT22;1910;49.042;9.028;2022-11-20T15:03:37;7.50;99.90
3790;DHT22;1910;49.042;9.028;2022-11-20T15:13:37;7.20;99.90
3790;DHT22;1910;49.042;9.028;2022-11-20T15:16:21;7.20;99.90
3790;DHT22;1910;49.042;9.028;2022-11-20T15:18:50;7.00;99.90
3790;DHT22;1910;49.042;9.028;2022-11-20T15:21:18;7.00;99.90
3790;DHT22;1910;49.042;9.028;2022-11-20T15:26:15;6.80;99.90
3790;DHT22;1910;49.042;9.028;2022-11-20T15:28:44;6.70;99.90
3790;DHT22;1910;49.042;9.028;2022-11-20T15:31:16;6.50;99.90
3790;DHT22;1910;49.042;9.028;2022-11-20T15:33:43;6.70;99.90
3790;DHT22;1910;49.042;9.028;2022-11-20T15:46:09;6.20;99.90
3790;DHT22;1910;49.042;9.028;2022-11-20T15:48:41;6.10;99.90
3790;DHT22;1910;49.042;9.028;2022-11-20T15:53:40;6.10;99.90
3790;DHT22;1910;49.042;9.028;2022-11-20T15:56:12;5.80;99.90
3790;DHT22;1910;49.042;9.028;2022-11-20T15:58:38;5.80;99.90
3790;DHT22;1910;49.042;9.028;2022-11-20T16:01:04;5.50;99.90
3790;DHT22;1910;49.042;9.028;2022-11-20T16:03:30;5.60;99.90
3790;DHT22;1910;49.042;9.028;2022-11-20T16:05:55;5.30;99.90
3790;DHT22;1910;49.042;9.028;2022-11-20T16:10:47;5.40;99.90
3790;DHT22;1910;49.042;9.028;2022-11-20T16:13:15;5.30;99.90
3790;DHT22;1910;49.042;9.028;2022-11-20T16:16:02;5.30;99.90
3790;DHT22;1910;49.042;9.028;2022-11-20T16:20:56;5.40;99.90
3790;DHT22;1910;49.042;9.028;2022-11-20T16:23:24;5.40;99.90
3790;DHT22;1910;49.042;9.028;2022-11-20T16:25:50;5.40;99.90
3790;DHT22;1910;49.042;9.028;2022-11-20T16:30:42;5.10;99.90
3790;DHT22;1910;49.042;9.028;2022-11-20T16:33:12;5.40;99.90
3790;DHT22;1910;49.042;9.028;2022-11-20T16:35:39;5.40;99.90
3790;DHT22;1910;49.042;9.028;2022-11-20T16:38:05;5.40;99.90
3790;DHT22;1910;49.042;9.028;2022-11-20T16:40:32;5.30;99.90
3790;DHT22;1910;49.042;9.028;2022-11-20T16:42:58;5.30;99.90
3790;DHT22;1910;49.042;9.028;2022-11-20T16:45:32;5.40;99.90
3790;DHT22;1910;49.042;9.028;2022-11-20T16:52:51;5.50;99.90
3790;DHT22;1910;49.042;9.028;2022-11-20T16:55:17;5.60;99.90
3790;DHT22;1910;49.042;9.028;2022-11-20T16:57:43;5.50;99.90
3790;DHT22;1910;49.042;9.028;2022-11-20T17:00:09;5.70;99.90
3790;DHT22;1910;49.042;9.028;2022-11-20T17:02:34;5.70;99.90
3790;DHT22;1910;49.042;9.028;2022-11-20T17:05:02;5.70;99.90
3790;DHT22;1910;49.042;9.028;2022-11-20T17:26:58;6.30;99.90
3790;DHT22;1910;49.042;9.028;2022-11-20T17:29:24;6.30;99.90
3790;DHT22;1910;49.042;9.028;2022-11-20T17:31:49;6.20;99.90
3790;DHT22;1910;49.042;9.028;2022-11-20T17:34:16;6.20;99.90
3790;DHT22;1910;49.042;9.028;2022-11-20T17:36:42;6.20;99.90
3790;DHT22;1910;49.042;9.028;2022-11-20T17:39:10;6.70;99.90
3790;DHT22;1910;49.042;9.028;2022-11-20T17:41:36;6.20;99.90
3790;DHT22;1910;49.042;9.028;2022-11-20T17:46:32;6.20;99.90
3790;DHT22;1910;49.042;9.028;2022-11-20T17:48:58;6.20;99.90
3790;DHT22;1910;49.042;9.028;2022-11-20T17:51:26;6.30;99.90
3790;DHT22;1910;49.042;9.028;2022-11-20T17:53:54;6.30;99.90
3790;DHT22;1910;49.042;9.028;2022-11-20T17:56:20;6.30;99.90
3790;DHT22;1910;49.042;9.028;2022-11-20T17:59:06;6.30;99.90
3790;DHT22;1910;49.042;9.028;2022-11-20T18:06:25;6.50;99.90
3790;DHT22;1910;49.042;9.028;2022-11-20T18:08:51;6.50;99.90
3790;DHT22;1910;49.042;9.028;2022-11-20T18:13:45;6.60;99.90
3790;DHT22;1910;49.042;9.028;2022-11-20T18:16:31;6.60;99.90
3790;DHT22;1910;49.042;9.028;2022-11-20T18:18:57;6.70;99.90
3790;DHT22;1910;49.042;9.028;2022-11-20T18:21:24;6.70;99.90
3790;DHT22;1910;49.042;9.028;2022-11-20T18:23:50;6.60;99.90
3790;DHT22;1910;49.042;9.028;2022-11-20T18:26:17;6.60;99.90
3790;DHT22;1910;49.042;9.028;2022-11-20T18:28:44;6.60;99.90
3790;DHT22;1910;49.042;9.028;2022-11-20T18:31:09;6.60;99.90
3790;DHT22;1910;49.042;9.028;2022-11-20T18:33:35;6.60;99.90
3790;DHT22;1910;49.042;9.028;2022-11-20T18:36:11;6.60;99.90
3790;DHT22;1910;49.042;9.028;2022-11-20T18:38:42;6.60;99.90
3790;DHT22;1910;49.042;9.028;2022-11-20T18:41:09;6.60;99.90
3790;DHT22;1910;49.042;9.028;2022-11-20T18:43:55;6.60;99.90
3790;DHT22;1910;49.042;9.028;2022-11-20T18:46:39;6.50;99.90
3790;DHT22;1910;49.042;9.028;2022-11-20T18:49:05;6.40;99.90
3790;DHT22;1910;49.042;9.028;2022-11-20T18:53:57;6.10;99.90
3790;DHT22;1910;49.042;9.028;2022-11-20T18:56:22;6.10;99.90
3790;DHT22;1910;49.042;9.028;2022-11-20T18:58:48;6.10;99.90
3790;DHT22;1910;49.042;9.028;2022-11-20T19:01:13;6.10;99.90
3790;DHT22;1910;49.042;9.028;2022-11-20T19:06:05;5.90;99.90
3790;DHT22;1910;49.042;9.028;2022-11-20T19:08:33;5.80;99.90
3790;DHT22;1910;49.042;9.028;2022-11-20T19:11:07;5.80;99.90
3790;DHT22;1910;49.042;9.028;2022-11-20T19:13:33;5.80;99.90
3790;DHT22;1910;49.042;9.028;2022-11-20T19:16:13;5.70;99.90
3790;DHT22;1910;49.042;9.028;2022-11-20T19:18:40;5.60;99.90
3790;DHT22;1910;49.042;9.028;2022-11-20T19:21:11;5.60;99.90
3790;DHT22;1910;49.042;9.028;2022-11-20T19:23:37;5.60;99.90
3790;DHT22;1910;49.042;9.028;2022-11-20T19:26:03;5.50;99.90
3790;DHT22;1910;49.042;9.028;2022-11-20T19:28:34;5.50;99.90
3790;DHT22;1910;49.042;9.028;2022-11-20T19:31:04;5.40;99.90
3790;DHT22;1910;49.042;9.028;2022-11-20T19:33:30;5.40;99.90
3790;DHT22;1910;49.042;9.028;2022-11-20T19:35:56;5.40;99.90
3790;DHT22;1910;49.042;9.028;2022-11-20T19:38:23;5.40;99.90
3790;DHT22;1910;49.042;9.028;2022-11-20T19:50:33;4.50;99.90
3790;DHT22;1910;49.042;9.028;2022-11-20T19:57:51;5.40;99.90
3790;DHT22;1910;49.042;9.028;2022-11-20T20:00:17;5.40;99.90
3790;DHT22;1910;49.042;9.028;2022-11-20T20:02:43;5.40;99.90
3790;DHT22;1910;49.042;9.028;2022-11-20T20:05:09;5.40;99.90
3790;DHT22;1910;49.042;9.028;2022-11-20T20:17:18;5.40;99.90
3790;DHT22;1910;49.042;9.028;2022-11-20T20:46:50;5.40;99.90
3790;DHT22;1910;49.042;9.028;2022-11-20T21:13:40;5.40;99.90
3790;DHT22;1910;49.042;9.028;2022-11-20T21:21:00;5.20;99.90
3790;DHT22;1910;49.042;9.028;2022-11-20T21:26:13;5.20;99.90
3790;DHT22;1910;49.042;9.028;2022-11-20T21:28:40;5.20;99.90
3790;DHT22;1910;49.042;9.028;2022-11-20T21:31:11;5.40;99.90
3790;DHT22;1910;49.042;9.028;2022-11-20T21:33:39;5.40;99.90
3790;DHT22;1910;49.042;9.028;2022-11-20T21:36:06;5.60;99.90
3790;DHT22;1910;49.042;9.028;2022-11-20T22:15:03;6.00;99.90
3790;DHT22;1910;49.042;9.028;2022-11-20T22:20:15;5.80;99.90
3790;DHT22;1910;49.042;9.028;2022-11-20T22:25:06;5.70;99.90
3790;DHT22;1910;49.042;9.028;2022-11-20T22:34:50;5.30;99.90
3790;DHT22;1910;49.042;9.028;2022-11-20T22:42:08;5.60;99.90
3790;DHT22;1910;49.042;9.028;2022-11-20T23:04:05;5.80;99.90
3790;DHT22;1910;49.042;9.028;2022-11-20T23:06:32;5.80;99.90
3790;DHT22;1910;49.042;9.028;2022-11-20T23:09:01;5.90;99.90
3790;DHT22;1910;49.042;9.028;2022-11-20T23:11:29;6.10;99.90
3790;DHT22;1910;49.042;9.028;2022-11-20T23:14:04;6.10;99.90
3790;DHT22;1910;49.042;9.028;2022-11-20T23:16:30;5.90;99.90
3790;DHT22;1910;49.042;9.028;2022-11-20T23:18:58;5.80;99.90
3790;DHT22;1910;49.042;9.028;2022-11-20T23:21:25;5.80;99.90
3790;DHT22;1910;49.042;9.028;2022-11-20T23:23:53;5.90;99.90
3790;DHT22;1910;49.042;9.028;2022-11-20T23:26:21;6.00;99.90
3790;DHT22;1910;49.042;9.028;2022-11-20T23:31:14;5.90;99.90
3790;DHT22;1910;49.042;9.028;2022-11-20T23:33:42;5.90;99.90
3790;DHT22;1910;49.042;9.028;2022-11-20T23:45:55;5.60;99.90
3790;DHT22;1910;49.042;9.028;2022-11-20T23:48:22;5.80;99.90
3790;DHT22;1910;49.042;9.028;2022-11-20T23:50:49;6.00;99.90
3790;DHT22;1910;49.042;9.028;2022-11-20T23:55:48;6.00;99.90
